DTTK

Kairouan Airport

Kairouan, Tunisia
METAR DTTK 160600Z 25003KT 170V310 8000 FEW023 12/07 Q1023
Observed Flight Rules
Dec-16 @ 06:00 UTC (14 minutes ago) Marginal Visual Flight Rules
Wind Visibility Clouds
250° at 3 knots 7,998 meters
  • Few at 2,300' AGL
Temperatures Readings
Current 12°C / 54°F
Dewpoint 7°C / 45°F
Humidity 72%
Altimeter 30.21" Hg
Pressure 1023 hPa
Elevation 68
METAR DTTK 160600Z 25003KT 170V310 8000 FEW023 12/07 Q1023
Observed Flight Rules
Dec-16 @ 06:00 UTC
(14 minutes ago)
MVFR
Wind Visibility
250° at 3 knots 7,998 meters
Clouds
  • Few at 2,300' AGL
Temperature Dewpoint
12°C / 54°F 7°C / 45°F
Humidity Altimeter Pressure
72% 30.21" Hg 1023 hPa